Time;durP1;ratioP1;P1;durP2;ratioP2;P2;SDS_P1;SDS_P2;PMS_P1;PMS_P2;Temp;Humidity;BMP_temperature;BMP_pressure;BME280_temperature;BME280_humidity;BME280_pressure;Samples;Min_cycle;Max_cycle;Signal;HPM_P1;HPM_P2
2021/12/25 00:00:18;;;;;;;12.52;9.05;;;6.10;99.90;;;;;;5035941;28;20052;-77
2021/12/25 00:02:44;;;;;;;10.00;8.40;;;6.10;99.90;;;;;;5035920;28;20361;-77
2021/12/25 00:05:11;;;;;;;8.73;7.82;;;6.10;99.90;;;;;;5035674;28;20048;-77
2021/12/25 00:07:37;;;;;;;10.60;8.85;;;6.20;99.90;;;;;;5035739;28;20025;-77
2021/12/25 00:10:05;;;;;;;10.15;8.80;;;6.20;99.90;;;;;;5035314;28;20036;-77
2021/12/25 00:12:32;;;;;;;11.95;9.63;;;6.10;99.90;;;;;;5035556;28;20087;-77
2021/12/25 00:14:58;;;;;;;11.05;9.18;;;6.10;99.90;;;;;;5035631;28;20034;-77
2021/12/25 00:17:27;;;;;;;12.15;9.57;;;6.10;99.90;;;;;;5035672;28;20025;-77
2021/12/25 00:19:53;;;;;;;10.13;8.43;;;6.00;99.90;;;;;;5035439;28;20049;-78
2021/12/25 00:22:21;;;;;;;9.95;8.63;;;6.00;99.90;;;;;;5035039;28;20104;-78
2021/12/25 00:24:47;;;;;;;12.30;9.52;;;6.20;99.90;;;;;;5035319;28;20109;-78
2021/12/25 00:27:42;;;;;;;10.23;9.13;;;6.20;99.90;;;;;;5035411;28;20057;-78
2021/12/25 00:35:14;;;;;;;11.18;8.65;;;6.10;99.90;;;;;;5035294;28;20048;-78
2021/12/25 00:37:39;;;;;;;10.98;8.65;;;6.10;99.90;;;;;;5035387;28;20029;-78
2021/12/25 00:40:06;;;;;;;10.13;7.80;;;6.10;99.90;;;;;;5035043;28;20033;-78
2021/12/25 00:42:32;;;;;;;9.45;8.02;;;6.10;99.90;;;;;;5035323;28;20087;-78
2021/12/25 00:44:57;;;;;;;8.30;6.80;;;6.10;99.90;;;;;;5035067;28;20468;-78
2021/12/25 00:47:23;;;;;;;9.55;7.53;;;6.10;99.90;;;;;;5035213;28;20065;-78
2021/12/25 00:49:49;;;;;;;8.48;7.03;;;6.10;99.90;;;;;;5034776;28;20389;-78
2021/12/25 00:52:15;;;;;;;9.57;7.47;;;6.00;99.90;;;;;;5034828;28;20025;-77
2021/12/25 00:54:41;;;;;;;7.97;7.13;;;6.10;99.90;;;;;;5034673;28;20055;-77
2021/12/25 00:57:07;;;;;;;9.00;7.75;;;6.00;99.90;;;;;;5034837;28;20035;-78
2021/12/25 00:59:32;;;;;;;8.13;7.13;;;5.90;99.90;;;;;;5035019;28;20063;-78
2021/12/25 01:01:58;;;;;;;7.30;6.60;;;5.80;99.90;;;;;;5034585;28;20029;-77
2021/12/25 01:04:25;;;;;;;7.38;6.22;;;5.80;99.90;;;;;;5035081;28;20416;-78
2021/12/25 01:06:51;;;;;;;6.95;6.18;;;5.80;99.90;;;;;;5034708;28;20029;-77
2021/12/25 01:09:17;;;;;;;7.28;6.55;;;5.70;99.90;;;;;;5034653;28;20458;-77
2021/12/25 01:11:46;;;;;;;7.30;6.03;;;5.70;99.90;;;;;;5034507;28;20033;-77
2021/12/25 01:14:30;;;;;;;7.82;7.00;;;5.80;99.90;;;;;;5034514;28;20045;-77
2021/12/25 01:25:23;;;;;;;8.70;7.75;;;5.60;99.90;;;;;;5034646;28;20030;-77
2021/12/25 01:48:19;;;;;;;14.32;11.70;;;5.10;99.90;;;;;;5033999;28;20164;-78
2021/12/25 01:50:44;;;;;;;14.23;11.45;;;5.10;99.90;;;;;;5034133;28;20045;-78
2021/12/25 01:53:10;;;;;;;12.75;11.00;;;4.90;99.90;;;;;;5033492;28;20111;-77
2021/12/25 01:55:36;;;;;;;13.50;11.48;;;5.00;99.90;;;;;;5033567;28;20037;-78
2021/12/25 01:58:04;;;;;;;14.43;12.32;;;4.90;99.90;;;;;;5033949;28;20045;-78
2021/12/25 02:00:44;;;;;;;14.93;12.13;;;4.90;99.90;;;;;;5034221;28;20036;-78
2021/12/25 02:03:12;;;;;;;16.23;13.80;;;4.90;99.90;;;;;;5033646;28;20026;-78
2021/12/25 02:05:38;;;;;;;17.27;14.00;;;4.90;99.90;;;;;;5033864;28;20033;-78
2021/12/25 02:08:04;;;;;;;19.45;14.55;;;4.90;99.90;;;;;;5033797;28;20101;-78
2021/12/25 02:10:30;;;;;;;17.52;14.50;;;4.80;99.90;;;;;;5033551;28;20025;-77
2021/12/25 02:12:56;;;;;;;18.80;15.52;;;4.70;99.90;;;;;;5033343;28;20040;-78
2021/12/25 02:15:24;;;;;;;19.60;15.40;;;4.70;99.90;;;;;;5033724;28;20025;-77
2021/12/25 02:20:27;;;;;;;20.65;15.98;;;4.60;99.90;;;;;;5033750;28;20461;-78
2021/12/25 02:23:00;;;;;;;20.35;16.17;;;4.50;99.90;;;;;;5033611;28;20056;-77
2021/12/25 02:25:26;;;;;;;21.67;17.17;;;4.50;99.90;;;;;;5034187;28;20396;-78
2021/12/25 02:27:52;;;;;;;20.90;16.10;;;4.50;99.90;;;;;;5046237;28;20284;-79
2021/12/25 02:30:18;;;;;;;21.08;16.67;;;4.50;99.90;;;;;;5035627;28;20366;-78
2021/12/25 02:32:46;;;;;;;23.58;17.50;;;4.50;99.90;;;;;;5033438;28;20057;-78
2021/12/25 02:35:13;;;;;;;24.27;18.15;;;4.40;99.90;;;;;;5033156;28;20037;-78
2021/12/25 02:37:40;;;;;;;24.08;17.52;;;4.40;99.90;;;;;;5033451;28;20063;-78
2021/12/25 02:40:07;;;;;;;22.85;17.02;;;4.40;99.90;;;;;;5033566;28;20048;-78
2021/12/25 02:42:34;;;;;;;24.42;17.42;;;4.40;99.90;;;;;;5033497;28;20392;-78
2021/12/25 02:45:00;;;;;;;23.50;18.25;;;4.50;99.90;;;;;;5033996;28;20042;-78
2021/12/25 02:47:29;;;;;;;23.70;17.88;;;4.50;99.90;;;;;;5037371;28;20112;-78
2021/12/25 02:49:55;;;;;;;22.67;18.10;;;4.50;99.90;;;;;;5037323;28;20036;-78
2021/12/25 02:52:20;;;;;;;23.65;17.02;;;4.40;99.90;;;;;;5037328;28;20440;-78
2021/12/25 02:54:46;;;;;;;22.23;17.15;;;4.50;99.90;;;;;;5036525;28;20528;-78
2021/12/25 02:57:13;;;;;;;25.77;18.67;;;4.50;99.90;;;;;;5037129;28;20125;-78
2021/12/25 02:59:39;;;;;;;22.92;18.13;;;4.40;99.90;;;;;;5037033;28;20057;-78
2021/12/25 03:02:16;;;;;;;22.73;16.60;;;4.40;99.90;;;;;;5036930;28;20029;-78
2021/12/25 03:04:44;;;;;;;27.70;19.48;;;4.30;99.90;;;;;;5037188;28;20076;-78
2021/12/25 03:07:11;;;;;;;28.17;19.20;;;4.20;99.90;;;;;;5036418;28;20037;-78
2021/12/25 03:09:37;;;;;;;26.80;20.25;;;4.30;99.90;;;;;;5037008;28;20366;-78
2021/12/25 03:12:06;;;;;;;22.20;16.80;;;4.30;99.90;;;;;;5037036;28;20030;-78
2021/12/25 03:15:02;;;;;;;25.17;19.00;;;4.20;99.90;;;;;;5036628;28;20396;-78
2021/12/25 03:17:27;;;;;;;30.00;18.35;;;4.30;99.90;;;;;;5036482;28;20022;-78
2021/12/25 03:19:55;;;;;;;27.15;18.15;;;4.30;99.90;;;;;;5036720;28;20148;-78
2021/12/25 03:22:21;;;;;;;27.55;19.13;;;4.40;99.90;;;;;;5036450;28;20389;-78
2021/12/25 03:24:46;;;;;;;27.33;18.92;;;4.40;99.90;;;;;;5036810;28;20022;-77
2021/12/25 03:27:12;;;;;;;29.48;18.85;;;4.40;99.90;;;;;;5036319;28;20033;-78
2021/12/25 03:29:40;;;;;;;29.77;19.15;;;4.30;99.90;;;;;;5036596;28;20029;-78
2021/12/25 03:32:07;;;;;;;26.13;18.40;;;4.30;99.90;;;;;;5036234;28;20025;-78
2021/12/25 03:34:32;;;;;;;24.73;17.40;;;4.30;99.90;;;;;;5036425;28;20038;-78
2021/12/25 03:36:58;;;;;;;25.17;17.58;;;4.50;99.90;;;;;;5036451;28;20511;-78
2021/12/25 03:39:24;;;;;;;24.83;16.83;;;4.40;99.90;;;;;;5036289;28;20481;-78
2021/12/25 03:41:49;;;;;;;22.13;15.60;;;4.30;99.90;;;;;;5036110;28;20026;-78
2021/12/25 03:44:15;;;;;;;22.55;15.52;;;4.30;99.90;;;;;;5036044;28;20112;-78
2021/12/25 03:46:41;;;;;;;21.90;15.05;;;4.20;99.90;;;;;;5036079;28;20113;-78
2021/12/25 03:49:25;;;;;;;21.65;14.15;;;4.20;99.90;;;;;;5036418;28;20120;-78
2021/12/25 03:57:43;;;;;;;18.90;12.95;;;4.10;99.90;;;;;;5015869;28;20120;-78
2021/12/25 04:00:14;;;;;;;18.83;12.75;;;4.20;99.90;;;;;;5036112;28;20420;-78
2021/12/25 04:02:52;;;;;;;20.15;13.32;;;4.10;99.60;;;;;;5035705;28;20040;-78
2021/12/25 04:05:20;;;;;;;21.05;12.32;;;4.00;99.90;;;;;;5035806;28;20471;-78
2021/12/25 04:08:22;;;;;;;18.15;12.30;;;4.00;99.90;;;;;;5036012;28;20029;-78
2021/12/25 04:10:41;;;;;;;15.88;11.10;;;4.10;99.90;;;;;;5034734;28;20029;-78
2021/12/25 04:13:10;;;;;;;15.73;10.70;;;4.10;99.50;;;;;;5035953;28;20030;-78
2021/12/25 04:15:36;;;;;;;16.38;10.80;;;4.00;99.20;;;;;;5035768;28;20049;-78
2021/12/25 04:18:02;;;;;;;15.15;11.13;;;4.10;99.50;;;;;;5035599;28;20488;-78
2021/12/25 04:20:29;;;;;;;15.68;10.10;;;4.00;99.10;;;;;;5035781;28;20108;-77
2021/12/25 04:23:02;;;;;;;14.30;9.90;;;3.90;99.50;;;;;;5043583;28;20148;-78
2021/12/25 04:25:30;;;;;;;;;;;3.80;99.30;;;;;;5049307;28;20086;-79
2021/12/25 04:28:03;;;;;;;15.43;9.13;;;3.90;99.60;;;;;;5035469;28;19909;-78
2021/12/25 04:30:36;;;;;;;12.38;8.80;;;3.80;99.40;;;;;;5035806;28;20045;-78
2021/12/25 05:06:06;;;;;;;7.93;4.65;;;3.30;98.20;;;;;;5034762;28;20022;-78
2021/12/25 05:08:31;;;;;;;9.57;5.13;;;3.30;98.00;;;;;;5034862;28;20104;-77
2021/12/25 05:10:57;;;;;;;6.50;4.40;;;3.20;98.30;;;;;;5034458;28;20152;-77
2021/12/25 05:13:23;;;;;;;6.30;4.47;;;3.30;98.30;;;;;;5034485;28;20029;-77
2021/12/25 05:15:49;;;;;;;6.18;3.85;;;3.30;98.20;;;;;;5034394;28;20041;-77
2021/12/25 05:18:15;;;;;;;5.45;3.05;;;3.40;98.10;;;;;;5034463;28;20030;-77
2021/12/25 05:20:41;;;;;;;6.47;3.03;;;3.40;97.70;;;;;;5034531;28;20029;-76
2021/12/25 05:23:07;;;;;;;4.45;2.30;;;3.20;97.20;;;;;;5034438;28;20469;-77
2021/12/25 05:25:33;;;;;;;3.47;2.00;;;3.20;97.50;;;;;;5033948;28;20381;-78
2021/12/25 05:28:00;;;;;;;5.88;2.00;;;3.40;97.20;;;;;;5034337;28;20022;-78
2021/12/25 05:30:27;;;;;;;6.00;1.67;;;3.30;96.50;;;;;;5034059;28;20033;-78
2021/12/25 05:32:52;;;;;;;2.95;1.80;;;3.30;96.40;;;;;;5033942;28;20465;-77
2021/12/25 05:35:18;;;;;;;3.40;1.38;;;3.20;96.30;;;;;;5034313;28;20044;-78
2021/12/25 05:37:44;;;;;;;3.70;1.50;;;3.20;96.90;;;;;;5034440;28;20052;-78
2021/12/25 05:40:12;;;;;;;4.55;1.33;;;3.10;96.10;;;;;;5034051;28;20041;-78
2021/12/25 05:42:38;;;;;;;4.50;1.58;;;3.00;96.10;;;;;;5034169;28;20029;-78
2021/12/25 05:45:04;;;;;;;2.80;1.17;;;2.90;96.40;;;;;;5033705;28;20035;-78
2021/12/25 05:47:30;;;;;;;3.67;1.23;;;2.90;96.20;;;;;;5033750;28;20401;-76
2021/12/25 05:49:56;;;;;;;2.67;1.40;;;2.80;96.30;;;;;;5033868;28;20029;-77
2021/12/25 05:52:22;;;;;;;2.40;1.30;;;2.50;96.10;;;;;;5033923;28;20037;-77
2021/12/25 05:54:47;;;;;;;6.93;1.38;;;2.50;96.70;;;;;;5033446;28;20053;-77
2021/12/25 05:57:13;;;;;;;3.05;1.38;;;2.40;96.70;;;;;;5033621;28;20021;-77
2021/12/25 05:59:39;;;;;;;2.92;1.45;;;2.30;96.80;;;;;;5033620;28;20029;-77
2021/12/25 06:02:04;;;;;;;1.90;1.50;;;2.40;96.70;;;;;;5033804;28;20067;-77
2021/12/25 06:04:30;;;;;;;2.60;1.67;;;2.40;96.70;;;;;;5033985;28;20040;-77
2021/12/25 06:06:56;;;;;;;2.38;1.52;;;2.40;96.90;;;;;;5033455;28;20033;-77
2021/12/25 06:09:21;;;;;;;3.30;1.70;;;2.50;96.90;;;;;;5033572;28;20100;-77
2021/12/25 06:11:47;;;;;;;2.38;1.55;;;2.60;96.60;;;;;;5033425;28;20029;-77
2021/12/25 06:14:19;;;;;;;4.30;1.70;;;2.50;96.80;;;;;;5033558;28;20041;-77
2021/12/25 06:16:46;;;;;;;3.88;1.75;;;2.50;96.90;;;;;;5033411;28;20468;-77
2021/12/25 06:19:11;;;;;;;5.68;1.90;;;2.50;96.70;;;;;;5033558;28;20033;-77
2021/12/25 06:21:37;;;;;;;4.55;1.83;;;2.40;96.60;;;;;;5039532;28;20075;-77
2021/12/25 06:24:05;;;;;;;3.30;1.70;;;2.20;97.20;;;;;;5040335;28;20059;-76
2021/12/25 06:26:32;;;;;;;3.42;2.05;;;2.30;97.60;;;;;;5040305;28;20053;-77
2021/12/25 06:28:57;;;;;;;7.20;1.92;;;2.30;97.10;;;;;;5039953;28;20076;-78
2021/12/25 06:31:23;;;;;;;4.65;2.08;;;2.30;97.20;;;;;;5040065;28;20057;-78
2021/12/25 06:33:50;;;;;;;5.70;2.30;;;2.30;96.90;;;;;;5040289;28;20047;-78
2021/12/25 06:36:16;;;;;;;2.97;2.13;;;2.30;96.50;;;;;;5040626;28;20393;-78
2021/12/25 06:38:42;;;;;;;3.22;2.20;;;2.30;96.50;;;;;;5040330;28;20026;-77
2021/12/25 06:41:10;;;;;;;3.40;1.92;;;2.40;96.50;;;;;;5040272;28;20045;-77
2021/12/25 06:43:36;;;;;;;3.97;2.35;;;2.50;96.20;;;;;;5039594;28;20018;-77
2021/12/25 06:46:03;;;;;;;4.22;2.00;;;2.50;96.20;;;;;;5039912;28;20025;-78
2021/12/25 06:48:28;;;;;;;5.20;2.03;;;2.60;96.30;;;;;;5040121;28;20022;-78
2021/12/25 06:50:54;;;;;;;4.35;2.15;;;2.60;96.10;;;;;;5039919;28;20403;-78
2021/12/25 06:53:20;;;;;;;3.53;2.13;;;2.60;96.10;;;;;;5039599;28;20030;-77
2021/12/25 06:55:46;;;;;;;6.18;2.55;;;2.40;95.80;;;;;;5039971;28;20029;-77
2021/12/25 06:58:12;;;;;;;5.05;1.98;;;2.30;96.30;;;;;;5039609;28;20419;-78
2021/12/25 07:00:38;;;;;;;4.55;1.88;;;2.20;96.30;;;;;;5039879;28;20071;-77
2021/12/25 07:03:03;;;;;;;4.97;2.72;;;2.20;96.30;;;;;;5040072;28;20021;-77
2021/12/25 07:05:29;;;;;;;4.88;2.15;;;2.10;96.50;;;;;;5040040;28;20033;-77
2021/12/25 07:07:55;;;;;;;3.85;2.22;;;2.10;96.40;;;;;;5039881;28;20068;-77
2021/12/25 07:10:21;;;;;;;2.47;1.80;;;2.00;96.40;;;;;;5039661;28;20041;-77
2021/12/25 07:12:49;;;;;;;6.57;2.22;;;2.10;96.60;;;;;;5039536;28;20469;-77
2021/12/25 07:15:15;;;;;;;2.58;1.88;;;2.10;96.50;;;;;;5039798;28;20061;-77
2021/12/25 07:17:40;;;;;;;3.80;1.80;;;2.10;96.10;;;;;;5039953;28;20072;-77
2021/12/25 07:20:07;;;;;;;4.95;2.50;;;2.10;96.00;;;;;;5040170;28;20049;-77
2021/12/25 07:22:32;;;;;;;2.78;1.98;;;2.00;95.90;;;;;;5051354;28;20026;-78
2021/12/25 07:24:58;;;;;;;2.90;1.70;;;2.10;96.20;;;;;;5039764;28;20484;-78
2021/12/25 07:27:24;;;;;;;4.60;1.95;;;2.20;96.00;;;;;;5039387;28;20029;-78
2021/12/25 07:29:50;;;;;;;3.08;1.63;;;2.30;95.60;;;;;;5039415;28;20034;-78
2021/12/25 07:32:16;;;;;;;2.88;1.88;;;2.30;95.50;;;;;;5036274;28;20362;-78
2021/12/25 07:34:46;;;;;;;3.70;1.90;;;2.30;95.20;;;;;;5036173;28;20084;-78
2021/12/25 07:37:13;;;;;;;6.13;2.15;;;2.20;95.00;;;;;;5036291;28;20487;-78
2021/12/25 07:39:39;;;;;;;7.03;1.80;;;2.00;95.20;;;;;;5036246;28;20029;-78
2021/12/25 07:42:05;;;;;;;3.42;1.95;;;1.90;95.50;;;;;;5036555;28;20058;-78
2021/12/25 07:44:31;;;;;;;2.40;1.83;;;1.90;95.40;;;;;;5036446;28;20033;-78
2021/12/25 07:46:57;;;;;;;4.50;1.70;;;1.90;95.20;;;;;;5036314;28;20519;-78
2021/12/25 07:49:23;;;;;;;2.95;1.90;;;2.00;95.00;;;;;;5036327;28;20104;-78
2021/12/25 07:51:48;;;;;;;2.80;2.10;;;2.00;94.50;;;;;;5035970;28;20043;-78
2021/12/25 07:54:15;;;;;;;5.20;2.30;;;2.00;94.60;;;;;;5036012;28;20508;-78
2021/12/25 07:56:40;;;;;;;5.70;2.78;;;2.00;94.50;;;;;;5036169;28;20033;-78
2021/12/25 07:59:06;;;;;;;6.75;2.55;;;2.10;94.40;;;;;;5036161;28;20151;-78
2021/12/25 08:01:35;;;;;;;3.83;2.30;;;2.00;94.40;;;;;;5036126;28;20041;-78
2021/12/25 08:04:02;;;;;;;4.82;2.10;;;1.90;95.00;;;;;;5036020;28;20467;-78
2021/12/25 08:06:28;;;;;;;5.07;1.85;;;1.80;94.80;;;;;;5035411;28;20037;-78
2021/12/25 08:08:56;;;;;;;4.53;2.45;;;1.80;94.70;;;;;;5036054;28;20021;-78
2021/12/25 08:11:22;;;;;;;4.70;2.28;;;1.80;94.80;;;;;;5036219;28;20035;-78
2021/12/25 08:13:48;;;;;;;3.92;2.30;;;1.80;94.50;;;;;;5035642;28;20391;-78
2021/12/25 08:16:13;;;;;;;4.82;2.25;;;1.70;94.90;;;;;;5035803;28;20100;-78
2021/12/25 08:18:39;;;;;;;6.85;2.20;;;1.50;94.60;;;;;;5035989;28;20038;-78
2021/12/25 08:21:05;;;;;;;5.10;2.15;;;1.50;94.80;;;;;;5046392;28;20021;-78
2021/12/25 08:23:32;;;;;;;6.80;2.50;;;1.30;94.80;;;;;;5035225;28;20103;-78
2021/12/25 08:26:02;;;;;;;4.05;2.47;;;1.40;95.10;;;;;;5035715;28;20068;-78
2021/12/25 08:28:28;;;;;;;4.40;1.85;;;1.60;95.00;;;;;;5035799;28;20113;-78
2021/12/25 08:30:54;;;;;;;3.05;1.70;;;1.60;94.30;;;;;;5035611;28;20436;-78
2021/12/25 08:33:20;;;;;;;3.53;1.50;;;1.50;94.30;;;;;;5035259;28;20033;-78
2021/12/25 08:35:45;;;;;;;3.33;1.90;;;1.50;94.10;;;;;;5035192;28;20392;-78
2021/12/25 08:38:11;;;;;;;1.88;1.30;;;1.30;93.40;;;;;;5035098;28;20025;-78
2021/12/25 08:40:42;;;;;;;2.00;1.10;;;1.10;93.90;;;;;;5035561;28;20026;-78
2021/12/25 08:43:08;;;;;;;2.95;1.30;;;1.10;94.40;;;;;;5034924;28;20032;-79
2021/12/25 08:48:14;;;;;;;2.10;1.20;;;1.10;94.40;;;;;;5035309;28;20025;-79
2021/12/25 08:50:41;;;;;;;4.20;1.25;;;1.20;94.30;;;;;;5034903;28;20411;-78
2021/12/25 08:53:06;;;;;;;3.63;2.15;;;1.30;94.10;;;;;;5034689;28;20029;-78
2021/12/25 08:55:32;;;;;;;3.35;1.08;;;1.20;94.20;;;;;;5034561;28;20042;-78
2021/12/25 08:57:58;;;;;;;1.63;0.90;;;1.10;94.40;;;;;;5034976;28;20021;-78
2021/12/25 09:00:24;;;;;;;2.53;0.98;;;1.20;94.10;;;;;;5034775;28;20376;-78
2021/12/25 09:02:51;;;;;;;2.45;0.70;;;1.20;94.10;;;;;;5034582;28;20500;-78
2021/12/25 09:05:17;;;;;;;2.83;0.70;;;1.30;94.10;;;;;;5034652;28;20033;-79
2021/12/25 09:07:42;;;;;;;4.38;0.73;;;1.50;93.60;;;;;;5034591;28;20025;-79
2021/12/25 09:10:08;;;;;;;1.73;0.63;;;1.60;93.20;;;;;;5034901;28;20025;-79
2021/12/25 09:12:39;;;;;;;1.77;0.50;;;1.60;92.60;;;;;;5034470;28;20072;-79
2021/12/25 09:15:05;;;;;;;2.53;0.70;;;1.60;92.20;;;;;;5034586;28;20037;-78
2021/12/25 09:17:31;;;;;;;1.73;0.43;;;1.50;92.30;;;;;;5034497;28;20109;-78
2021/12/25 09:19:57;;;;;;;1.45;0.40;;;1.40;92.30;;;;;;5042522;28;20113;-79
2021/12/25 09:22:22;;;;;;;1.45;0.38;;;1.50;92.30;;;;;;5037822;28;20473;-79
2021/12/25 09:24:48;;;;;;;1.42;0.38;;;1.60;91.90;;;;;;5034309;28;20377;-79
2021/12/25 09:27:13;;;;;;;1.38;0.35;;;1.60;91.40;;;;;;5034304;28;20026;-77
2021/12/25 09:29:39;;;;;;;0.93;0.20;;;1.70;91.10;;;;;;5034130;28;20036;-78
2021/12/25 09:32:05;;;;;;;0.95;0.25;;;1.60;90.70;;;;;;5034254;28;20021;-79
2021/12/25 09:34:31;;;;;;;1.00;0.30;;;1.60;90.60;;;;;;5033930;28;20061;-79
2021/12/25 09:36:56;;;;;;;1.33;0.40;;;1.60;90.20;;;;;;5034270;28;20030;-77
2021/12/25 09:39:22;;;;;;;0.60;0.20;;;1.80;89.60;;;;;;5034187;28;20049;-77
2021/12/25 09:41:48;;;;;;;2.42;0.55;;;1.80;87.70;;;;;;5034218;28;20151;-77
2021/12/25 09:44:13;;;;;;;1.13;0.22;;;1.90;86.70;;;;;;5033924;28;20025;-77
2021/12/25 09:46:39;;;;;;;1.08;0.30;;;1.80;84.80;;;;;;5034006;28;20040;-77
2021/12/25 09:49:06;;;;;;;2.75;0.35;;;1.80;85.00;;;;;;5033701;28;20048;-77
2021/12/25 09:51:32;;;;;;;2.45;0.50;;;1.70;85.00;;;;;;5034031;28;20487;-78
2021/12/25 09:54:02;;;;;;;0.90;0.20;;;1.70;84.10;;;;;;5033676;28;20057;-77
2021/12/25 09:56:29;;;;;;;1.27;0.10;;;1.70;82.00;;;;;;5033327;28;20067;-78
2021/12/25 09:58:55;;;;;;;0.88;0.20;;;1.80;82.30;;;;;;5033846;28;20026;-78
2021/12/25 10:01:47;;;;;;;0.88;0.20;;;1.80;82.30;;;;;;5033837;28;20026;-77
2021/12/25 10:04:32;;;;;;;2.38;0.38;;;1.80;82.50;;;;;;5033978;28;20021;-77
2021/12/25 10:06:58;;;;;;;0.60;0.20;;;1.80;82.10;;;;;;5033930;28;20037;-77
2021/12/25 10:09:25;;;;;;;2.95;0.47;;;1.80;81.20;;;;;;5033649;28;20022;-77
2021/12/25 10:12:04;;;;;;;1.27;0.30;;;1.90;81.90;;;;;;5033646;28;20026;-78
2021/12/25 10:14:30;;;;;;;3.30;0.30;;;2.10;81.10;;;;;;5033677;28;20369;-78
2021/12/25 10:16:55;;;;;;;3.28;0.30;;;2.20;79.60;;;;;;5034126;28;20028;-78
2021/12/25 10:19:26;;;;;;;2.40;0.40;;;2.20;79.50;;;;;;5033616;28;20026;-78
2021/12/25 10:22:08;;;;;;;0.55;0.30;;;2.20;81.00;;;;;;5033547;28;20018;-78
2021/12/25 10:24:41;;;;;;;1.17;0.28;;;2.30;79.90;;;;;;5033489;28;20108;-78
2021/12/25 10:27:17;;;;;;;2.35;0.43;;;2.40;79.20;;;;;;5033853;28;20025;-78
2021/12/25 10:29:43;;;;;;;2.97;0.50;;;2.50;78.40;;;;;;5033158;28;20025;-78
2021/12/25 10:32:23;;;;;;;2.25;0.30;;;2.70;79.30;;;;;;5033715;28;20025;-78
2021/12/25 10:34:50;;;;;;;0.93;0.20;;;2.90;77.90;;;;;;5033500;28;20037;-78
2021/12/25 10:37:19;;;;;;;3.97;0.55;;;2.80;76.30;;;;;;5033545;28;20026;-78
2021/12/25 10:39:46;;;;;;;2.22;0.20;;;2.80;75.90;;;;;;5033329;28;20358;-78
2021/12/25 10:42:17;;;;;;;1.17;0.20;;;2.80;76.00;;;;;;5033257;28;20112;-78
2021/12/25 10:44:54;;;;;;;1.85;0.20;;;2.80;75.40;;;;;;5033511;28;20025;-78
2021/12/25 10:47:26;;;;;;;1.92;0.43;;;2.90;75.90;;;;;;5033195;28;20026;-78
2021/12/25 10:49:56;;;;;;;1.20;0.20;;;3.00;75.10;;;;;;5033469;28;20114;-78
2021/12/25 10:52:25;;;;;;;2.80;0.30;;;2.90;75.60;;;;;;5033155;28;20391;-78
2021/12/25 10:55:20;;;;;;;2.45;0.40;;;2.90;76.30;;;;;;5032878;28;20496;-78
2021/12/25 10:57:52;;;;;;;2.10;0.20;;;3.00;76.20;;;;;;5033161;28;20440;-78
2021/12/25 11:00:21;;;;;;;1.25;0.30;;;3.10;76.30;;;;;;5033206;28;20385;-78
2021/12/25 11:02:57;;;;;;;1.83;0.40;;;3.20;75.60;;;;;;5033076;28;20053;-78
2021/12/25 11:05:49;;;;;;;2.45;0.30;;;3.30;74.20;;;;;;5033430;28;20030;-78
2021/12/25 11:08:24;;;;;;;1.58;0.20;;;3.20;72.40;;;;;;5036704;28;20493;-78
2021/12/25 11:10:50;;;;;;;0.73;0.20;;;3.20;73.00;;;;;;5040953;28;20029;-78
2021/12/25 11:13:25;;;;;;;2.25;0.30;;;3.30;72.50;;;;;;5045187;28;20366;-78
2021/12/25 11:15:56;;;;;;;0.50;0.20;;;3.30;72.30;;;;;;5037291;28;20057;-78
2021/12/25 11:18:23;;;;;;;1.63;0.30;;;3.40;72.30;;;;;;5036599;28;20032;-77
2021/12/25 11:20:48;;;;;;;2.35;0.20;;;3.30;72.40;;;;;;5036500;28;20068;-77
2021/12/25 11:23:15;;;;;;;1.63;0.38;;;3.30;70.90;;;;;;5036610;28;20033;-78
2021/12/25 11:25:43;;;;;;;1.70;0.13;;;3.30;71.80;;;;;;5035432;28;20041;-78
2021/12/25 11:28:11;;;;;;;1.40;0.30;;;3.30;71.20;;;;;;5036579;28;20026;-78
2021/12/25 11:30:41;;;;;;;4.28;0.13;;;3.20;70.30;;;;;;5036490;28;20083;-78
2021/12/25 11:33:07;;;;;;;1.52;0.20;;;3.00;71.70;;;;;;5036399;28;20392;-78
2021/12/25 11:35:34;;;;;;;1.00;0.20;;;2.90;72.30;;;;;;5036096;28;20038;-79
2021/12/25 11:38:00;;;;;;;0.65;0.25;;;3.00;72.60;;;;;;5035975;28;20362;-79
2021/12/25 11:40:28;;;;;;;2.40;0.40;;;3.00;72.10;;;;;;5036311;28;20026;-79
2021/12/25 11:42:57;;;;;;;0.80;0.20;;;3.00;72.00;;;;;;5036064;28;20399;-79
2021/12/25 11:45:32;;;;;;;1.52;0.30;;;2.90;71.60;;;;;;5036608;28;20140;-79
2021/12/25 11:48:19;;;;;;;1.20;0.20;;;2.80;71.40;;;;;;5035958;28;20448;-79
2021/12/25 11:50:49;;;;;;;1.95;0.75;;;2.90;71.50;;;;;;5036004;28;20377;-79
2021/12/25 11:53:27;;;;;;;1.05;0.28;;;3.00;71.30;;;;;;5036157;28;20029;-78
2021/12/25 11:58:50;;;;;;;0.80;0.13;;;3.10;71.70;;;;;;5036173;28;20022;-79
2021/12/25 12:01:20;;;;;;;1.30;0.28;;;3.20;72.50;;;;;;5036000;28;20049;-79
2021/12/25 12:03:52;;;;;;;1.63;0.20;;;3.30;71.60;;;;;;5036250;28;20029;-79
2021/12/25 12:06:18;;;;;;;0.60;0.10;;;3.40;69.60;;;;;;5035620;28;20029;-78
2021/12/25 12:08:53;;;;;;;1.60;0.28;;;3.40;70.00;;;;;;5035685;28;20384;-78
2021/12/25 12:11:24;;;;;;;3.25;0.28;;;3.40;70.20;;;;;;5036076;28;20109;-79
2021/12/25 12:14:12;;;;;;;0.88;0.20;;;3.50;69.40;;;;;;5036052;28;20374;-79
2021/12/25 12:16:42;;;;;;;1.73;0.20;;;3.50;68.90;;;;;;5031708;28;20040;-78
2021/12/25 12:19:29;;;;;;;1.70;0.20;;;3.50;68.90;;;;;;5035134;28;20382;-79
2021/12/25 12:21:55;;;;;;;1.85;0.20;;;3.50;68.50;;;;;;5036024;28;20017;-78
2021/12/25 12:27:03;;;;;;;1.23;0.32;;;3.40;68.20;;;;;;5035543;28;20025;-78
2021/12/25 12:29:51;;;;;;;1.10;0.20;;;3.50;68.20;;;;;;5035361;28;20021;-78
2021/12/25 12:32:19;;;;;;;2.22;0.30;;;3.50;67.90;;;;;;5035290;28;20362;-79
2021/12/25 12:34:47;;;;;;;1.75;0.30;;;3.40;68.30;;;;;;5035152;28;20120;-78
2021/12/25 12:37:13;;;;;;;1.20;0.30;;;3.40;67.60;;;;;;5035081;28;20025;-79
2021/12/25 12:40:03;;;;;;;3.20;0.30;;;3.40;67.60;;;;;;5035278;28;20030;-78
2021/12/25 12:42:46;;;;;;;1.58;0.28;;;3.50;68.30;;;;;;5035516;28;20037;-79
2021/12/25 12:45:19;;;;;;;1.10;0.20;;;3.60;68.50;;;;;;5034977;28;20029;-79
2021/12/25 12:48:14;;;;;;;2.88;0.30;;;3.80;67.40;;;;;;5034542;28;20039;-79
2021/12/25 12:50:46;;;;;;;2.22;0.30;;;3.90;65.40;;;;;;5034776;28;20034;-79
2021/12/25 12:53:12;;;;;;;3.60;0.32;;;3.80;65.60;;;;;;5035107;28;20148;-79
2021/12/25 12:55:41;;;;;;;1.48;0.32;;;3.70;65.10;;;;;;5035078;28;20120;-79
2021/12/25 12:58:23;;;;;;;1.27;0.30;;;3.70;65.80;;;;;;5035303;28;20029;-79
2021/12/25 13:00:58;;;;;;;2.38;0.40;;;3.80;66.70;;;;;;5034878;28;20021;-79
2021/12/25 13:03:25;;;;;;;0.77;0.28;;;3.90;64.30;;;;;;5036681;28;20028;-79
2021/12/25 13:06:04;;;;;;;1.63;0.30;;;4.00;62.70;;;;;;5039501;28;20083;-79
2021/12/25 13:08:32;;;;;;;1.73;0.50;;;4.20;63.30;;;;;;5034954;28;20378;-79
2021/12/25 13:11:09;;;;;;;1.75;0.20;;;4.20;63.50;;;;;;5034462;28;20025;-77
2021/12/25 13:13:47;;;;;;;1.23;0.28;;;4.00;61.90;;;;;;5034803;28;20108;-78
2021/12/25 13:16:15;;;;;;;2.45;0.30;;;3.90;61.20;;;;;;5034746;28;20105;-78
2021/12/25 13:18:47;;;;;;;8.45;0.40;;;3.80;63.20;;;;;;5034902;28;20021;-78
2021/12/25 13:21:18;;;;;;;2.35;0.30;;;3.80;62.20;;;;;;5034201;28;20034;-78
2021/12/25 13:23:53;;;;;;;5.47;0.40;;;3.80;61.90;;;;;;5034397;28;20546;-77
2021/12/25 13:26:26;;;;;;;1.00;0.20;;;3.90;62.90;;;;;;5034481;28;20079;-77
2021/12/25 13:28:52;;;;;;;1.30;0.20;;;3.90;62.50;;;;;;5034397;28;20036;-78
2021/12/25 13:31:21;;;;;;;2.25;0.40;;;3.70;62.70;;;;;;5033492;28;20033;-78
2021/12/25 13:33:51;;;;;;;1.40;0.60;;;3.90;63.50;;;;;;5034100;28;20025;-77
2021/12/25 13:36:23;;;;;;;1.45;0.20;;;4.00;62.80;;;;;;5034337;28;20056;-79
2021/12/25 13:38:51;;;;;;;4.22;0.50;;;4.00;61.90;;;;;;5034289;28;20052;-77
2021/12/25 13:41:35;;;;;;;1.17;0.68;;;4.00;61.80;;;;;;5034410;28;20022;-78
2021/12/25 13:44:19;;;;;;;2.25;0.30;;;4.10;60.40;;;;;;5034135;28;20048;-78
2021/12/25 13:46:47;;;;;;;2.55;0.40;;;4.10;60.60;;;;;;5034021;28;20455;-78
2021/12/25 13:49:31;;;;;;;2.40;0.20;;;4.00;60.20;;;;;;5034250;28;20025;-78
2021/12/25 13:51:59;;;;;;;4.00;0.38;;;3.90;59.80;;;;;;5034617;28;20021;-78
2021/12/25 13:54:24;;;;;;;3.03;0.30;;;3.70;59.20;;;;;;5033682;28;20463;-78
2021/12/25 13:56:54;;;;;;;2.47;0.50;;;3.70;62.30;;;;;;5033944;28;20063;-78
2021/12/25 13:59:20;;;;;;;1.80;0.20;;;3.60;61.50;;;;;;5034291;28;20377;-78
2021/12/25 14:02:03;;;;;;;1.45;0.30;;;3.50;61.80;;;;;;5033841;28;20021;-78
2021/12/25 14:04:32;;;;;;;4.35;0.35;;;3.40;60.90;;;;;;5033759;28;20555;-78
2021/12/25 14:06:58;;;;;;;1.83;0.40;;;3.50;60.80;;;;;;5033867;28;20059;-78
2021/12/25 14:09:24;;;;;;;1.80;0.60;;;3.50;60.60;;;;;;5033777;28;20108;-78
2021/12/25 14:11:55;;;;;;;1.48;0.40;;;3.50;60.90;;;;;;5034168;28;20245;-77
2021/12/25 14:14:22;;;;;;;2.15;0.60;;;3.40;59.90;;;;;;5033297;28;20045;-79
2021/12/25 14:16:49;;;;;;;4.32;0.50;;;3.40;59.50;;;;;;5033915;28;20040;-78
2021/12/25 14:19:15;;;;;;;1.60;0.30;;;3.30;60.00;;;;;;5033503;28;20472;-78
2021/12/25 14:21:59;;;;;;;2.50;0.28;;;3.30;60.20;;;;;;5033783;28;20026;-78
2021/12/25 14:24:25;;;;;;;1.75;0.25;;;3.30;60.30;;;;;;5033508;28;20481;-78